Farmington, Mississippi
Current Conditions -  °F | °C
As of 6:15 PM on Wednesday 26 Nov 2014 (Local Time) from KCRX Reporting Station
Clear Clear  
Wind Chill: 39°   Ceiling: Unl
Heat Index: 45°   Visibility: 10mi
Dew Point: 34°   Wind: 10mph
Humidity: 66%   Direction: 290°WNW
Pressure: 30.08"   Gusts: NA
Location:  34.9238°N, 88.6234°W
Report Text: KCRX 270015Z AUTO 29009KT 10SM CLR 07/01 A3008 RMK AO2
Loading
Personal Weather Stations






























Interactive Weather Map New forecast layout! Learn more

10-Day Weather Forecast

Advertisements
Track Severe Weather on mobile